sensor_id;sensor_type;location;lat;lon;timestamp;temperature;humidity
56123;DHT22;42426;46.104;19.656;2023-05-19T00:01:46;384.10;2329.60
56123;DHT22;42426;46.104;19.656;2023-05-19T00:04:13;384.10;2329.60
56123;DHT22;42426;46.104;19.656;2023-05-19T00:06:40;384.10;2329.60
56123;DHT22;42426;46.104;19.656;2023-05-19T00:09:08;384.10;2329.60
56123;DHT22;42426;46.104;19.656;2023-05-19T00:11:35;384.10;2329.60
56123;DHT22;42426;46.104;19.656;2023-05-19T00:14:02;384.10;2329.60
56123;DHT22;42426;46.104;19.656;2023-05-19T00:16:29;384.00;2329.60
56123;DHT22;42426;46.104;19.656;2023-05-19T00:18:59;384.00;2329.60
56123;DHT22;42426;46.104;19.656;2023-05-19T00:21:26;384.10;2329.60
56123;DHT22;42426;46.104;19.656;2023-05-19T00:23:52;384.10;2329.60
56123;DHT22;42426;46.104;19.656;2023-05-19T00:26:18;384.10;2329.60
56123;DHT22;42426;46.104;19.656;2023-05-19T00:28:44;384.10;2329.60
56123;DHT22;42426;46.104;19.656;2023-05-19T00:31:09;384.10;2329.60
56123;DHT22;42426;46.104;19.656;2023-05-19T00:33:35;384.10;2329.60
56123;DHT22;42426;46.104;19.656;2023-05-19T00:36:02;384.10;2329.60
56123;DHT22;42426;46.104;19.656;2023-05-19T00:38:31;384.10;2329.60
56123;DHT22;42426;46.104;19.656;2023-05-19T00:40:58;384.20;2329.60
56123;DHT22;42426;46.104;19.656;2023-05-19T00:43:24;384.20;2329.60
56123;DHT22;42426;46.104;19.656;2023-05-19T00:45:50;384.20;2329.60
56123;DHT22;42426;46.104;19.656;2023-05-19T00:48:16;384.20;2329.60
56123;DHT22;42426;46.104;19.656;2023-05-19T00:50:42;384.20;2329.60
56123;DHT22;42426;46.104;19.656;2023-05-19T00:53:09;384.20;2329.60
56123;DHT22;42426;46.104;19.656;2023-05-19T00:55:36;384.20;2329.60
56123;DHT22;42426;46.104;19.656;2023-05-19T00:58:06;384.20;2329.60
56123;DHT22;42426;46.104;19.656;2023-05-19T01:00:33;384.20;2329.60
56123;DHT22;42426;46.104;19.656;2023-05-19T01:02:59;384.20;2329.60
56123;DHT22;42426;46.104;19.656;2023-05-19T01:05:25;384.20;2329.60
56123;DHT22;42426;46.104;19.656;2023-05-19T01:07:51;384.20;2329.60
56123;DHT22;42426;46.104;19.656;2023-05-19T01:10:21;384.10;2329.60
56123;DHT22;42426;46.104;19.656;2023-05-19T01:12:47;384.20;2329.60
56123;DHT22;42426;46.104;19.656;2023-05-19T01:15:13;384.20;2329.60
56123;DHT22;42426;46.104;19.656;2023-05-19T01:18:04;384.10;2329.60
56123;DHT22;42426;46.104;19.656;2023-05-19T01:20:38;384.20;2329.60
56123;DHT22;42426;46.104;19.656;2023-05-19T01:26:48;384.10;2329.60
56123;DHT22;42426;46.104;19.656;2023-05-19T01:29:45;384.20;2329.60
56123;DHT22;42426;46.104;19.656;2023-05-19T01:32:15;384.10;2329.60
56123;DHT22;42426;46.104;19.656;2023-05-19T01:34:43;384.10;2329.60
56123;DHT22;42426;46.104;19.656;2023-05-19T01:37:12;384.10;2329.60
56123;DHT22;42426;46.104;19.656;2023-05-19T01:39:40;384.00;2329.60
56123;DHT22;42426;46.104;19.656;2023-05-19T01:42:07;384.10;2329.60
56123;DHT22;42426;46.104;19.656;2023-05-19T01:44:33;384.10;2329.60
56123;DHT22;42426;46.104;19.656;2023-05-19T01:46:59;384.00;2329.60
56123;DHT22;42426;46.104;19.656;2023-05-19T01:49:26;384.00;2329.60
56123;DHT22;42426;46.104;19.656;2023-05-19T01:51:53;384.10;2329.60
56123;DHT22;42426;46.104;19.656;2023-05-19T01:54:18;384.00;2329.60
56123;DHT22;42426;46.104;19.656;2023-05-19T01:56:51;384.00;2329.60
56123;DHT22;42426;46.104;19.656;2023-05-19T01:59:41;384.00;2329.60
56123;DHT22;42426;46.104;19.656;2023-05-19T02:03:14;384.00;2329.60
56123;DHT22;42426;46.104;19.656;2023-05-19T02:08:36;384.00;2329.60
56123;DHT22;42426;46.104;19.656;2023-05-19T02:11:21;359.30;2329.60
56123;DHT22;42426;46.104;19.656;2023-05-19T02:13:54;384.10;2329.60
56123;DHT22;42426;46.104;19.656;2023-05-19T02:16:23;359.30;2329.60
56123;DHT22;42426;46.104;19.656;2023-05-19T02:18:50;359.30;2329.60
56123;DHT22;42426;46.104;19.656;2023-05-19T02:21:18;359.20;2329.60
56123;DHT22;42426;46.104;19.656;2023-05-19T02:23:44;359.20;2329.60
56123;DHT22;42426;46.104;19.656;2023-05-19T02:26:09;359.10;2329.60
56123;DHT22;42426;46.104;19.656;2023-05-19T02:28:35;359.10;2329.60
56123;DHT22;42426;46.104;19.656;2023-05-19T02:31:01;359.10;2329.60
56123;DHT22;42426;46.104;19.656;2023-05-19T02:33:27;359.00;2329.60
56123;DHT22;42426;46.104;19.656;2023-05-19T02:35:55;359.00;2329.60
56123;DHT22;42426;46.104;19.656;2023-05-19T05:44:09;384.00;2329.60
56123;DHT22;42426;46.104;19.656;2023-05-19T05:46:34;384.00;2329.60
56123;DHT22;42426;46.104;19.656;2023-05-19T05:49:00;384.00;2329.60
56123;DHT22;42426;46.104;19.656;2023-05-19T05:51:26;384.00;2329.60
56123;DHT22;42426;46.104;19.656;2023-05-19T05:53:53;384.00;2329.60
56123;DHT22;42426;46.104;19.656;2023-05-19T05:56:20;384.10;2329.60
56123;DHT22;42426;46.104;19.656;2023-05-19T05:58:46;384.10;2329.60
56123;DHT22;42426;46.104;19.656;2023-05-19T06:01:13;384.10;2329.60
56123;DHT22;42426;46.104;19.656;2023-05-19T06:03:42;384.10;2329.60
56123;DHT22;42426;46.104;19.656;2023-05-19T06:06:09;384.10;2329.60
56123;DHT22;42426;46.104;19.656;2023-05-19T06:08:36;384.10;2329.60
56123;DHT22;42426;46.104;19.656;2023-05-19T06:11:01;384.20;2329.60
56123;DHT22;42426;46.104;19.656;2023-05-19T06:13:34;384.20;2329.60
56123;DHT22;42426;46.104;19.656;2023-05-19T06:16:00;384.30;2329.60
56123;DHT22;42426;46.104;19.656;2023-05-19T06:18:27;384.40;2329.60
56123;DHT22;42426;46.104;19.656;2023-05-19T06:20:53;384.30;2329.60
56123;DHT22;42426;46.104;19.656;2023-05-19T06:23:18;384.40;2329.60
56123;DHT22;42426;46.104;19.656;2023-05-19T06:25:44;384.30;2329.60
56123;DHT22;42426;46.104;19.656;2023-05-19T06:28:10;384.60;2329.60
56123;DHT22;42426;46.104;19.656;2023-05-19T06:30:36;384.40;2329.60
56123;DHT22;42426;46.104;19.656;2023-05-19T06:33:02;384.50;2329.60
56123;DHT22;42426;46.104;19.656;2023-05-19T06:35:28;384.50;2329.60
56123;DHT22;42426;46.104;19.656;2023-05-19T06:40:21;409.70;2355.20
56123;DHT22;42426;46.104;19.656;2023-05-19T06:42:47;409.60;2355.20
56123;DHT22;42426;46.104;19.656;2023-05-19T06:45:13;409.60;2355.20
56123;DHT22;42426;46.104;19.656;2023-05-19T06:47:39;409.60;2355.20
56123;DHT22;42426;46.104;19.656;2023-05-19T06:50:09;384.90;2329.60
56123;DHT22;42426;46.104;19.656;2023-05-19T06:52:35;409.60;2355.20
56123;DHT22;42426;46.104;19.656;2023-05-19T06:55:01;409.60;2355.20
56123;DHT22;42426;46.104;19.656;2023-05-19T06:57:27;409.70;2355.20
56123;DHT22;42426;46.104;19.656;2023-05-19T06:59:52;409.70;2355.20
56123;DHT22;42426;46.104;19.656;2023-05-19T07:02:18;409.70;2355.20
56123;DHT22;42426;46.104;19.656;2023-05-19T07:04:44;410.00;2355.20
56123;DHT22;42426;46.104;19.656;2023-05-19T07:07:09;409.80;2355.20
56123;DHT22;42426;46.104;19.656;2023-05-19T07:09:35;410.20;2355.20
56123;DHT22;42426;46.104;19.656;2023-05-19T07:12:01;410.10;2355.20
56123;DHT22;42426;46.104;19.656;2023-05-19T07:14:27;410.00;2355.20
56123;DHT22;42426;46.104;19.656;2023-05-19T07:16:52;409.90;2355.20
56123;DHT22;42426;46.104;19.656;2023-05-19T07:19:18;410.00;2355.20
56123;DHT22;42426;46.104;19.656;2023-05-19T07:21:45;410.00;2355.20
56123;DHT22;42426;46.104;19.656;2023-05-19T07:24:11;410.20;2355.20
56123;DHT22;42426;46.104;19.656;2023-05-19T07:26:36;410.30;2355.20
56123;DHT22;42426;46.104;19.656;2023-05-19T07:29:02;410.30;2355.20
56123;DHT22;42426;46.104;19.656;2023-05-19T07:31:28;410.40;2355.20
56123;DHT22;42426;46.104;19.656;2023-05-19T07:33:53;410.50;2355.20
56123;DHT22;42426;46.104;19.656;2023-05-19T07:36:19;435.20;2355.20
56123;DHT22;42426;46.104;19.656;2023-05-19T07:38:46;435.20;2355.20
56123;DHT22;42426;46.104;19.656;2023-05-19T07:41:11;435.30;2355.20
56123;DHT22;42426;46.104;19.656;2023-05-19T07:43:37;435.40;2355.20
56123;DHT22;42426;46.104;19.656;2023-05-19T07:46:04;435.50;2355.20
56123;DHT22;42426;46.104;19.656;2023-05-19T07:48:30;435.60;2355.20
56123;DHT22;42426;46.104;19.656;2023-05-19T07:50:56;435.70;2355.20
56123;DHT22;42426;46.104;19.656;2023-05-19T07:53:22;435.70;2355.20
56123;DHT22;42426;46.104;19.656;2023-05-19T07:55:48;435.70;2355.20
56123;DHT22;42426;46.104;19.656;2023-05-19T07:58:14;435.80;2355.20
56123;DHT22;42426;46.104;19.656;2023-05-19T08:00:40;435.90;2355.20
56123;DHT22;42426;46.104;19.656;2023-05-19T08:03:10;436.00;2355.20
56123;DHT22;42426;46.104;19.656;2023-05-19T08:05:36;436.00;2355.20
56123;DHT22;42426;46.104;19.656;2023-05-19T08:08:03;436.00;2355.20
56123;DHT22;42426;46.104;19.656;2023-05-19T08:10:28;436.10;2355.20
56123;DHT22;42426;46.104;19.656;2023-05-19T08:12:54;436.10;2355.20
56123;DHT22;42426;46.104;19.656;2023-05-19T08:15:20;460.80;2380.80
56123;DHT22;42426;46.104;19.656;2023-05-19T08:17:46;460.90;2380.80
56123;DHT22;42426;46.104;19.656;2023-05-19T08:20:12;461.00;2380.80
56123;DHT22;42426;46.104;19.656;2023-05-19T08:22:38;461.00;2380.80
56123;DHT22;42426;46.104;19.656;2023-05-19T08:25:04;461.00;2380.80
56123;DHT22;42426;46.104;19.656;2023-05-19T08:27:30;461.10;2380.80
56123;DHT22;42426;46.104;19.656;2023-05-19T08:29:56;461.20;2380.80
56123;DHT22;42426;46.104;19.656;2023-05-19T08:32:22;461.20;2380.80
56123;DHT22;42426;46.104;19.656;2023-05-19T08:34:48;461.30;2380.80
56123;DHT22;42426;46.104;19.656;2023-05-19T08:37:14;461.30;2380.80
56123;DHT22;42426;46.104;19.656;2023-05-19T08:39:40;461.30;2380.80
56123;DHT22;42426;46.104;19.656;2023-05-19T08:42:06;461.30;2380.80
56123;DHT22;42426;46.104;19.656;2023-05-19T08:44:33;461.40;2380.80
56123;DHT22;42426;46.104;19.656;2023-05-19T08:47:02;461.50;2380.80
56123;DHT22;42426;46.104;19.656;2023-05-19T08:49:32;461.30;2380.80
56123;DHT22;42426;46.104;19.656;2023-05-19T08:54:44;461.70;2380.80
56123;DHT22;42426;46.104;19.656;2023-05-19T08:57:11;486.40;2380.80
56123;DHT22;42426;46.104;19.656;2023-05-19T08:59:38;486.40;2380.80
56123;DHT22;42426;46.104;19.656;2023-05-19T09:02:05;486.50;2380.80
56123;DHT22;42426;46.104;19.656;2023-05-19T09:04:33;486.50;2355.20
56123;DHT22;42426;46.104;19.656;2023-05-19T09:06:59;486.50;2355.20
56123;DHT22;42426;46.104;19.656;2023-05-19T09:09:28;486.50;2329.60
56123;DHT22;42426;46.104;19.656;2023-05-19T09:11:55;486.60;2355.20
56123;DHT22;42426;46.104;19.656;2023-05-19T09:14:21;486.70;2355.20
56123;DHT22;42426;46.104;19.656;2023-05-19T09:16:47;486.70;2380.80
56123;DHT22;42426;46.104;19.656;2023-05-19T09:19:15;486.80;2304.00
56123;DHT22;42426;46.104;19.656;2023-05-19T09:21:41;486.80;2355.20
56123;DHT22;42426;46.104;19.656;2023-05-19T09:24:08;487.10;2355.20
56123;DHT22;42426;46.104;19.656;2023-05-19T09:26:38;487.10;2329.60
56123;DHT22;42426;46.104;19.656;2023-05-19T09:29:17;487.10;2355.20
56123;DHT22;42426;46.104;19.656;2023-05-19T09:31:48;487.20;2329.60
56123;DHT22;42426;46.104;19.656;2023-05-19T09:34:17;487.30;2329.60
56123;DHT22;42426;46.104;19.656;2023-05-19T09:36:43;487.30;2329.60
56123;DHT22;42426;46.104;19.656;2023-05-19T09:39:12;487.20;2304.00
56123;DHT22;42426;46.104;19.656;2023-05-19T09:41:39;487.30;2304.00
56123;DHT22;42426;46.104;19.656;2023-05-19T09:44:05;487.30;2329.60
56123;DHT22;42426;46.104;19.656;2023-05-19T09:46:32;487.30;2355.20
56123;DHT22;42426;46.104;19.656;2023-05-19T09:49:07;512.00;2329.60
56123;DHT22;42426;46.104;19.656;2023-05-19T09:51:37;512.10;2329.60
56123;DHT22;42426;46.104;19.656;2023-05-19T09:54:02;512.20;2329.60
56123;DHT22;42426;46.104;19.656;2023-05-19T09:56:33;512.20;2329.60
56123;DHT22;42426;46.104;19.656;2023-05-19T09:59:03;512.20;2329.60
56123;DHT22;42426;46.104;19.656;2023-05-19T10:01:30;512.30;2329.60
56123;DHT22;42426;46.104;19.656;2023-05-19T10:03:59;512.40;2329.60
56123;DHT22;42426;46.104;19.656;2023-05-19T10:06:25;512.60;2278.40
56123;DHT22;42426;46.104;19.656;2023-05-19T10:08:51;512.60;2304.00
56123;DHT22;42426;46.104;19.656;2023-05-19T10:11:17;512.70;2278.40
56123;DHT22;42426;46.104;19.656;2023-05-19T10:13:44;512.80;2278.40
56123;DHT22;42426;46.104;19.656;2023-05-19T10:16:12;512.80;2304.00
56123;DHT22;42426;46.104;19.656;2023-05-19T10:18:41;512.80;2304.00
56123;DHT22;42426;46.104;19.656;2023-05-19T10:21:07;512.80;2304.00
56123;DHT22;42426;46.104;19.656;2023-05-19T10:23:35;512.80;2278.40
56123;DHT22;42426;46.104;19.656;2023-05-19T10:26:02;512.80;2252.80
56123;DHT22;42426;46.104;19.656;2023-05-19T10:28:39;512.80;2278.40
56123;DHT22;42426;46.104;19.656;2023-05-19T10:31:10;512.80;2304.00
56123;DHT22;42426;46.104;19.656;2023-05-19T10:39:04;512.90;2304.00
56123;DHT22;42426;46.104;19.656;2023-05-19T10:42:14;512.80;2304.00
56123;DHT22;42426;46.104;19.656;2023-05-19T10:47:12;512.80;2278.40
56123;DHT22;42426;46.104;19.656;2023-05-19T10:49:38;512.80;2252.80
56123;DHT22;42426;46.104;19.656;2023-05-19T10:52:18;512.80;2278.40
56123;DHT22;42426;46.104;19.656;2023-05-19T10:54:46;512.70;2278.40
56123;DHT22;42426;46.104;19.656;2023-05-19T10:57:15;512.70;2304.00
56123;DHT22;42426;46.104;19.656;2023-05-19T10:59:41;512.80;2304.00
56123;DHT22;42426;46.104;19.656;2023-05-19T11:02:10;512.80;2278.40
56123;DHT22;42426;46.104;19.656;2023-05-19T11:05:12;512.80;2304.00
56123;DHT22;42426;46.104;19.656;2023-05-19T11:07:58;512.80;2304.00
56123;DHT22;42426;46.104;19.656;2023-05-19T11:10:31;512.70;2304.00
56123;DHT22;42426;46.104;19.656;2023-05-19T11:12:57;512.70;2304.00
56123;DHT22;42426;46.104;19.656;2023-05-19T11:15:25;512.70;2329.60
56123;DHT22;42426;46.104;19.656;2023-05-19T11:17:52;512.70;2304.00
56123;DHT22;42426;46.104;19.656;2023-05-19T11:20:25;512.70;2304.00
56123;DHT22;42426;46.104;19.656;2023-05-19T11:23:20;512.70;2304.00
56123;DHT22;42426;46.104;19.656;2023-05-19T11:25:47;512.80;2329.60
56123;DHT22;42426;46.104;19.656;2023-05-19T11:28:20;512.70;2329.60
56123;DHT22;42426;46.104;19.656;2023-05-19T11:30:52;512.70;2329.60
56123;DHT22;42426;46.104;19.656;2023-05-19T11:33:21;512.70;2329.60
56123;DHT22;42426;46.104;19.656;2023-05-19T11:35:52;512.60;2329.60
56123;DHT22;42426;46.104;19.656;2023-05-19T11:38:19;512.80;2329.60
56123;DHT22;42426;46.104;19.656;2023-05-19T11:40:47;512.80;2329.60
56123;DHT22;42426;46.104;19.656;2023-05-19T11:43:14;512.80;2329.60
56123;DHT22;42426;46.104;19.656;2023-05-19T11:45:41;512.90;2329.60
56123;DHT22;42426;46.104;19.656;2023-05-19T11:48:10;537.60;2329.60
56123;DHT22;42426;46.104;19.656;2023-05-19T11:50:37;537.60;2355.20
56123;DHT22;42426;46.104;19.656;2023-05-19T11:53:05;537.70;2355.20
56123;DHT22;42426;46.104;19.656;2023-05-19T11:55:31;537.80;2304.00
56123;DHT22;42426;46.104;19.656;2023-05-19T11:58:01;537.80;2329.60
56123;DHT22;42426;46.104;19.656;2023-05-19T12:00:34;537.90;2278.40
56123;DHT22;42426;46.104;19.656;2023-05-19T12:03:04;537.90;2252.80
56123;DHT22;42426;46.104;19.656;2023-05-19T12:05:30;537.90;2304.00
56123;DHT22;42426;46.104;19.656;2023-05-19T12:07:56;538.00;2304.00
56123;DHT22;42426;46.104;19.656;2023-05-19T12:10:26;538.00;2278.40
56123;DHT22;42426;46.104;19.656;2023-05-19T12:12:53;538.00;2252.80
56123;DHT22;42426;46.104;19.656;2023-05-19T12:15:23;538.00;2252.80
56123;DHT22;42426;46.104;19.656;2023-05-19T12:17:57;538.00;2278.40
56123;DHT22;42426;46.104;19.656;2023-05-19T12:20:24;538.10;2304.00
56123;DHT22;42426;46.104;19.656;2023-05-19T12:22:51;538.30;2304.00
56123;DHT22;42426;46.104;19.656;2023-05-19T12:25:17;538.40;2201.60
56123;DHT22;42426;46.104;19.656;2023-05-19T12:27:43;538.40;2227.20
56123;DHT22;42426;46.104;19.656;2023-05-19T12:30:10;563.20;2278.40
56123;DHT22;42426;46.104;19.656;2023-05-19T12:32:37;563.40;2252.80
56123;DHT22;42426;46.104;19.656;2023-05-19T12:35:04;563.50;2432.00
56123;DHT22;42426;46.104;19.656;2023-05-19T12:37:31;563.60;2278.40
56123;DHT22;42426;46.104;19.656;2023-05-19T12:40:01;563.60;2227.20
56123;DHT22;42426;46.104;19.656;2023-05-19T12:42:29;563.90;2201.60
56123;DHT22;42426;46.104;19.656;2023-05-19T12:45:01;563.80;2227.20
56123;DHT22;42426;46.104;19.656;2023-05-19T12:47:34;563.90;2252.80
56123;DHT22;42426;46.104;19.656;2023-05-19T12:50:07;588.80;2278.40
56123;DHT22;42426;46.104;19.656;2023-05-19T12:52:39;589.10;2176.00
56123;DHT22;42426;46.104;19.656;2023-05-19T12:55:05;588.90;2124.80
56123;DHT22;42426;46.104;19.656;2023-05-19T12:57:42;589.00;2176.00
56123;DHT22;42426;46.104;19.656;2023-05-19T13:00:16;589.10;2201.60
56123;DHT22;42426;46.104;19.656;2023-05-19T13:05:20;589.30;2176.00
56123;DHT22;42426;46.104;19.656;2023-05-19T13:10:19;589.50;2176.00
56123;DHT22;42426;46.104;19.656;2023-05-19T13:12:45;589.60;2176.00
56123;DHT22;42426;46.104;19.656;2023-05-19T13:15:11;589.60;2073.60
56123;DHT22;42426;46.104;19.656;2023-05-19T13:22:29;614.70;2099.20
56123;DHT22;42426;46.104;19.656;2023-05-19T13:24:55;614.60;2022.40
56123;DHT22;42426;46.104;19.656;2023-05-19T13:27:23;614.60;2048.00
56123;DHT22;42426;46.104;19.656;2023-05-19T13:29:49;614.60;2022.40
56123;DHT22;42426;46.104;19.656;2023-05-19T13:32:15;614.60;2048.00
56123;DHT22;42426;46.104;19.656;2023-05-19T13:34:41;614.60;2048.00
56123;DHT22;42426;46.104;19.656;2023-05-19T13:37:07;614.60;2022.40
56123;DHT22;42426;46.104;19.656;2023-05-19T13:39:34;614.70;2022.40
56123;DHT22;42426;46.104;19.656;2023-05-19T13:42:00;614.70;1996.80
56123;DHT22;42426;46.104;19.656;2023-05-19T13:44:26;614.70;2048.00
56123;DHT22;42426;46.104;19.656;2023-05-19T13:46:52;614.70;2073.60
56123;DHT22;42426;46.104;19.656;2023-05-19T13:49:17;614.60;2048.00
56123;DHT22;42426;46.104;19.656;2023-05-19T13:51:43;614.60;2048.00
56123;DHT22;42426;46.104;19.656;2023-05-19T13:54:09;614.60;2073.60
56123;DHT22;42426;46.104;19.656;2023-05-19T13:56:35;614.60;2048.00
56123;DHT22;42426;46.104;19.656;2023-05-19T13:59:02;614.60;2048.00
56123;DHT22;42426;46.104;19.656;2023-05-19T14:01:28;614.70;1996.80
56123;DHT22;42426;46.104;19.656;2023-05-19T14:03:54;614.70;2022.40
56123;DHT22;42426;46.104;19.656;2023-05-19T14:06:20;614.70;2048.00
56123;DHT22;42426;46.104;19.656;2023-05-19T14:08:45;614.70;2048.00
56123;DHT22;42426;46.104;19.656;2023-05-19T14:11:18;614.70;2048.00
56123;DHT22;42426;46.104;19.656;2023-05-19T14:13:45;614.70;2048.00
56123;DHT22;42426;46.104;19.656;2023-05-19T14:16:11;614.80;2073.60
56123;DHT22;42426;46.104;19.656;2023-05-19T14:18:36;615.00;2073.60
56123;DHT22;42426;46.104;19.656;2023-05-19T14:21:02;615.10;2048.00
56123;DHT22;42426;46.104;19.656;2023-05-19T14:23:28;615.20;2048.00
56123;DHT22;42426;46.104;19.656;2023-05-19T14:25:54;615.10;2022.40
56123;DHT22;42426;46.104;19.656;2023-05-19T14:28:20;615.30;2022.40
56123;DHT22;42426;46.104;19.656;2023-05-19T14:30:46;615.30;2022.40
56123;DHT22;42426;46.104;19.656;2023-05-19T14:38:04;640.20;1971.20
56123;DHT22;42426;46.104;19.656;2023-05-19T14:40:30;640.30;1945.60
56123;DHT22;42426;46.104;19.656;2023-05-19T14:45:21;640.50;1920.00
56123;DHT22;42426;46.104;19.656;2023-05-19T14:47:47;640.40;1920.00
56123;DHT22;42426;46.104;19.656;2023-05-19T14:50:13;640.40;1920.00
56123;DHT22;42426;46.104;19.656;2023-05-19T14:52:38;640.40;1971.20
56123;DHT22;42426;46.104;19.656;2023-05-19T14:55:05;640.50;1945.60
56123;DHT22;42426;46.104;19.656;2023-05-19T14:57:30;640.10;1945.60
56123;DHT22;42426;46.104;19.656;2023-05-19T14:59:56;640.50;1945.60
56123;DHT22;42426;46.104;19.656;2023-05-19T15:02:22;640.60;1971.20
56123;DHT22;42426;46.104;19.656;2023-05-19T15:04:48;640.70;1996.80
56123;DHT22;42426;46.104;19.656;2023-05-19T15:07:13;640.50;1996.80
56123;DHT22;42426;46.104;19.656;2023-05-19T15:09:39;640.50;1945.60
56123;DHT22;42426;46.104;19.656;2023-05-19T15:12:05;640.50;1945.60
56123;DHT22;42426;46.104;19.656;2023-05-19T15:14:31;640.40;1945.60
56123;DHT22;42426;46.104;19.656;2023-05-19T15:16:56;640.40;1920.00
56123;DHT22;42426;46.104;19.656;2023-05-19T15:19:22;640.30;1945.60
56123;DHT22;42426;46.104;19.656;2023-05-19T15:21:48;640.50;1945.60
56123;DHT22;42426;46.104;19.656;2023-05-19T15:24:15;640.80;1894.40
56123;DHT22;42426;46.104;19.656;2023-05-19T15:29:07;665.90;1894.40
56123;DHT22;42426;46.104;19.656;2023-05-19T15:31:34;666.00;1894.40
56123;DHT22;42426;46.104;19.656;2023-05-19T15:33:59;666.20;1843.20
56123;DHT22;42426;46.104;19.656;2023-05-19T15:36:25;665.90;1868.80
56123;DHT22;42426;46.104;19.656;2023-05-19T15:38:51;665.90;1843.20
56123;DHT22;42426;46.104;19.656;2023-05-19T15:41:17;665.60;1868.80
56123;DHT22;42426;46.104;19.656;2023-05-19T15:46:10;666.20;1843.20
56123;DHT22;42426;46.104;19.656;2023-05-19T15:51:03;691.80;1740.80
56123;DHT22;42426;46.104;19.656;2023-05-19T15:53:29;716.80;1715.20
56123;DHT22;42426;46.104;19.656;2023-05-19T15:55:55;717.30;1689.60
56123;DHT22;42426;46.104;19.656;2023-05-19T15:58:22;717.60;1638.40
56123;DHT22;42426;46.104;19.656;2023-05-19T16:00:48;717.70;1664.00
56123;DHT22;42426;46.104;19.656;2023-05-19T16:03:14;742.60;1612.80
56123;DHT22;42426;46.104;19.656;2023-05-19T16:05:39;742.90;1587.20
56123;DHT22;42426;46.104;19.656;2023-05-19T16:08:05;742.90;1587.20
56123;DHT22;42426;46.104;19.656;2023-05-19T16:10:31;742.60;1561.60
56123;DHT22;42426;46.104;19.656;2023-05-19T16:12:56;742.40;1587.20
56123;DHT22;42426;46.104;19.656;2023-05-19T16:15:22;717.30;1612.80
56123;DHT22;42426;46.104;19.656;2023-05-19T16:17:48;717.10;1638.40
56123;DHT22;42426;46.104;19.656;2023-05-19T16:20:13;717.20;1612.80
56123;DHT22;42426;46.104;19.656;2023-05-19T16:22:40;717.30;1612.80
56123;DHT22;42426;46.104;19.656;2023-05-19T16:25:06;692.00;1638.40
56123;DHT22;42426;46.104;19.656;2023-05-19T16:27:32;692.10;1638.40
56123;DHT22;42426;46.104;19.656;2023-05-19T16:29:58;717.00;1638.40
56123;DHT22;42426;46.104;19.656;2023-05-19T16:32:25;717.20;1612.80
56123;DHT22;42426;46.104;19.656;2023-05-19T16:34:51;717.30;1587.20
56123;DHT22;42426;46.104;19.656;2023-05-19T16:37:17;717.40;1561.60
56123;DHT22;42426;46.104;19.656;2023-05-19T16:39:43;717.50;1587.20
56123;DHT22;42426;46.104;19.656;2023-05-19T16:42:09;717.60;1561.60
56123;DHT22;42426;46.104;19.656;2023-05-19T16:44:34;717.60;1536.00
56123;DHT22;42426;46.104;19.656;2023-05-19T16:47:00;717.40;1561.60
56123;DHT22;42426;46.104;19.656;2023-05-19T16:49:26;717.20;1561.60
56123;DHT22;42426;46.104;19.656;2023-05-19T16:51:52;692.00;1587.20
56123;DHT22;42426;46.104;19.656;2023-05-19T16:54:18;692.00;1612.80
56123;DHT22;42426;46.104;19.656;2023-05-19T16:56:45;692.00;1612.80
56123;DHT22;42426;46.104;19.656;2023-05-19T16:59:10;691.70;1612.80
56123;DHT22;42426;46.104;19.656;2023-05-19T17:01:36;691.50;1664.00
56123;DHT22;42426;46.104;19.656;2023-05-19T17:04:02;691.50;1664.00
56123;DHT22;42426;46.104;19.656;2023-05-19T17:06:28;666.40;1715.20
56123;DHT22;42426;46.104;19.656;2023-05-19T17:08:53;665.90;1792.00
56123;DHT22;42426;46.104;19.656;2023-05-19T17:11:19;640.70;1817.60
56123;DHT22;42426;46.104;19.656;2023-05-19T17:13:45;640.20;1868.80
56123;DHT22;42426;46.104;19.656;2023-05-19T17:16:11;615.20;1920.00
56123;DHT22;42426;46.104;19.656;2023-05-19T17:18:37;614.80;1945.60
56123;DHT22;42426;46.104;19.656;2023-05-19T17:21:02;614.60;1971.20
56123;DHT22;42426;46.104;19.656;2023-05-19T17:23:30;614.40;2048.00
56123;DHT22;42426;46.104;19.656;2023-05-19T17:25:56;589.50;2048.00
56123;DHT22;42426;46.104;19.656;2023-05-19T17:28:22;589.30;2048.00
56123;DHT22;42426;46.104;19.656;2023-05-19T17:30:48;589.10;2124.80
56123;DHT22;42426;46.104;19.656;2023-05-19T17:33:13;589.10;2150.40
56123;DHT22;42426;46.104;19.656;2023-05-19T17:35:39;588.80;2099.20
56123;DHT22;42426;46.104;19.656;2023-05-19T17:38:08;588.80;2099.20
56123;DHT22;42426;46.104;19.656;2023-05-19T17:40:33;563.90;2150.40
56123;DHT22;42426;46.104;19.656;2023-05-19T17:43:01;563.90;2150.40
56123;DHT22;42426;46.104;19.656;2023-05-19T17:45:26;563.80;2176.00
56123;DHT22;42426;46.104;19.656;2023-05-19T17:47:52;563.70;2150.40
56123;DHT22;42426;46.104;19.656;2023-05-19T17:50:18;563.60;2176.00
56123;DHT22;42426;46.104;19.656;2023-05-19T18:04:58;563.30;2227.20
56123;DHT22;42426;46.104;19.656;2023-05-19T18:07:24;538.40;2201.60
56123;DHT22;42426;46.104;19.656;2023-05-19T18:09:54;538.20;2201.60
56123;DHT22;42426;46.104;19.656;2023-05-19T18:12:20;538.10;2227.20
56123;DHT22;42426;46.104;19.656;2023-05-19T18:14:45;537.90;2252.80
56123;DHT22;42426;46.104;19.656;2023-05-19T18:17:11;537.90;2278.40
56123;DHT22;42426;46.104;19.656;2023-05-19T18:19:37;537.70;2278.40
56123;DHT22;42426;46.104;19.656;2023-05-19T18:22:03;537.60;2304.00
56123;DHT22;42426;46.104;19.656;2023-05-19T18:24:28;537.60;2304.00
56123;DHT22;42426;46.104;19.656;2023-05-19T18:26:54;537.60;2304.00
56123;DHT22;42426;46.104;19.656;2023-05-19T18:29:20;512.90;2278.40
56123;DHT22;42426;46.104;19.656;2023-05-19T18:31:45;512.80;2304.00
56123;DHT22;42426;46.104;19.656;2023-05-19T18:34:11;512.80;2304.00
56123;DHT22;42426;46.104;19.656;2023-05-19T18:36:38;512.80;2329.60
56123;DHT22;42426;46.104;19.656;2023-05-19T18:39:04;512.70;2329.60
56123;DHT22;42426;46.104;19.656;2023-05-19T18:41:29;512.70;2355.20